Time;durP1;ratioP1;P1;durP2;ratioP2;P2;SDS_P1;SDS_P2;PMS_P1;PMS_P2;Temp;Humidity;BMP_temperature;BMP_pressure;BME280_temperature;BME280_humidity;BME280_pressure;Samples;Min_cycle;Max_cycle;Signal;HPM_P1;HPM_P2
2022/03/16 00:00:32;;;;;;;51.65;25.27;;;;;;;4.99;92.04;98751.13;3192028;23;20045;-78
2022/03/16 00:01:57;;;;;;;48.65;23.95;;;;;;;4.91;92.23;98752.00;3191887;23;20706;-78
2022/03/16 00:03:13;;;;;;;54.40;27.42;;;;;;;4.92;92.48;98758.91;3192303;23;20136;-78
2022/03/16 00:04:28;;;;;;;52.40;26.33;;;;;;;4.95;92.30;98753.72;3192425;23;20024;-78
2022/03/16 00:05:44;;;;;;;53.25;25.30;;;;;;;4.94;92.29;98759.78;3192014;23;20016;-76
2022/03/16 00:07:00;;;;;;;53.42;26.65;;;;;;;4.93;92.02;98758.06;3191981;23;20113;-77
2022/03/16 00:08:15;;;;;;;55.25;26.75;;;;;;;4.96;92.37;98757.19;3191963;23;20012;-77
2022/03/16 00:09:31;;;;;;;47.35;25.35;;;;;;;5.00;92.11;98755.44;3192256;23;20075;-76
2022/03/16 00:10:46;;;;;;;49.10;23.95;;;;;;;5.00;91.86;98753.72;3192364;23;20092;-76
2022/03/16 00:12:02;;;;;;;46.55;23.73;;;;;;;5.00;91.89;98760.63;3191763;23;20067;-78
2022/03/16 00:13:18;;;;;;;47.50;23.60;;;;;;;4.98;91.80;98762.38;3192459;23;20021;-76
2022/03/16 00:14:33;;;;;;;48.38;23.67;;;;;;;5.00;91.31;98760.63;3192460;23;20356;-78
2022/03/16 00:15:49;;;;;;;42.90;22.88;;;;;;;4.94;91.22;98758.91;3191881;23;20100;-80
2022/03/16 00:17:05;;;;;;;43.85;22.63;;;;;;;4.95;91.12;98750.25;3192602;23;20021;-76
2022/03/16 00:18:21;;;;;;;44.28;22.27;;;;;;;4.98;90.53;98758.06;3192189;23;20017;-78
2022/03/16 00:19:37;;;;;;;44.33;22.35;;;;;;;4.98;90.48;98762.38;3192102;23;20025;-76
2022/03/16 00:20:52;;;;;;;45.15;23.20;;;;;;;4.97;90.68;98765.81;3192506;23;20551;-78
2022/03/16 00:22:08;;;;;;;43.53;22.55;;;;;;;5.05;90.02;98777.09;3192390;23;20025;-77
2022/03/16 00:23:25;;;;;;;41.35;20.67;;;;;;;5.02;89.52;98769.28;3192157;23;20032;-76
2022/03/16 00:24:41;;;;;;;41.83;22.38;;;;;;;5.02;89.69;98764.09;3192084;23;20344;-77
2022/03/16 00:25:58;;;;;;;42.85;22.13;;;;;;;4.95;90.55;98774.47;3192464;23;20024;-77
2022/03/16 00:27:13;;;;;;;49.00;24.10;;;;;;;4.97;91.08;98784.00;3192271;23;20492;-77
2022/03/16 00:28:29;;;;;;;45.75;24.25;;;;;;;4.97;91.12;98773.59;3192398;23;20094;-76
2022/03/16 00:29:44;;;;;;;52.20;25.42;;;;;;;4.99;91.05;98782.25;3192701;23;20467;-77
2022/03/16 00:31:04;;;;;;;48.47;24.58;;;;;;;4.99;91.20;98784.84;3192155;23;20340;-78
2022/03/16 00:32:19;;;;;;;50.08;24.65;;;;;;;4.97;91.07;98786.59;3192477;23;20448;-77
2022/03/16 00:33:35;;;;;;;46.17;23.88;;;;;;;5.01;90.81;98785.72;3192162;23;20025;-78
2022/03/16 00:34:50;;;;;;;46.72;23.45;;;;;;;5.02;90.71;98788.31;3192491;23;20021;-77
2022/03/16 00:36:06;;;;;;;46.42;23.77;;;;;;;4.98;90.66;98783.13;3192327;23;20048;-76
2022/03/16 00:37:22;;;;;;;53.92;25.42;;;;;;;4.87;91.15;98786.56;3192494;23;20021;-81
2022/03/16 00:38:37;;;;;;;44.60;23.00;;;;;;;4.88;91.18;98783.09;3192535;23;20467;-79
2022/03/16 00:39:53;;;;;;;45.75;23.35;;;;;;;4.91;91.17;98784.84;3192466;23;20028;-78
2022/03/16 00:41:09;;;;;;;47.58;23.98;;;;;;;4.88;90.92;98780.50;3192186;23;20047;-77
2022/03/16 00:42:24;;;;;;;47.70;23.85;;;;;;;4.89;90.92;98782.28;3192282;23;20017;-78
2022/03/16 00:43:41;;;;;;;44.28;22.63;;;;;;;4.92;91.05;98777.09;3192212;23;20017;-77
2022/03/16 00:44:56;;;;;;;46.78;22.85;;;;;;;4.95;91.00;98782.25;3192432;23;20024;-77
2022/03/16 00:46:12;;;;;;;49.97;24.02;;;;;;;4.93;91.11;98781.41;3192028;23;20052;-77
2022/03/16 00:47:28;;;;;;;51.97;24.25;;;;;;;4.94;91.21;98783.13;3192209;23;20024;-77
2022/03/16 00:48:44;;;;;;;46.17;22.95;;;;;;;4.90;91.06;98785.72;3192175;23;20017;-79
2022/03/16 00:49:59;;;;;;;46.55;23.10;;;;;;;4.83;91.11;98792.63;3192088;23;20024;-78
2022/03/16 00:51:15;;;;;;;43.80;22.27;;;;;;;4.85;91.10;98792.66;3192278;23;20017;-77
2022/03/16 00:52:30;;;;;;;50.65;24.35;;;;;;;4.85;91.11;98796.09;3192117;23;20388;-78
2022/03/16 00:53:46;;;;;;;52.17;24.08;;;;;;;4.79;91.37;98796.09;3191925;23;20025;-78
2022/03/16 00:55:02;;;;;;;49.15;24.75;;;;;;;4.75;91.41;98800.41;3191984;23;20075;-78
2022/03/16 00:56:18;;;;;;;49.80;24.58;;;;;;;4.74;91.56;98795.19;3192297;23;20318;-79
2022/03/16 00:57:34;;;;;;;50.38;25.40;;;;;;;4.73;91.32;98796.06;3192041;23;20028;-79
2022/03/16 00:58:49;;;;;;;48.78;23.77;;;;;;;4.70;91.58;98798.66;3192142;23;20088;-78
2022/03/16 01:00:06;;;;;;;49.70;24.92;;;;;;;4.71;91.54;98798.69;3191995;23;20032;-78
2022/03/16 01:01:22;;;;;;;44.00;21.48;;;;;;;4.71;91.56;98792.63;3192250;23;20030;-78
2022/03/16 01:02:37;;;;;;;48.45;24.73;;;;;;;4.74;91.31;98795.19;3192033;23;20520;-78
2022/03/16 01:03:56;;;;;;;55.42;25.92;;;;;;;4.67;91.28;98799.50;3192046;23;20048;-76
2022/03/16 01:05:11;;;;;;;49.03;24.15;;;;;;;4.64;91.61;98803.00;3191856;23;20471;-77
2022/03/16 01:06:27;;;;;;;48.67;25.42;;;;;;;4.65;91.38;98807.31;3191834;23;20091;-77
2022/03/16 01:07:43;;;;;;;45.35;22.75;;;;;;;4.66;91.46;98803.84;3191854;23;20024;-76
2022/03/16 01:08:58;;;;;;;43.17;22.83;;;;;;;4.61;91.37;98804.72;3191930;23;20079;-77
2022/03/16 01:10:14;;;;;;;44.22;21.88;;;;;;;4.58;91.45;98813.34;3192550;23;20512;-78
2022/03/16 01:11:31;;;;;;;46.17;23.38;;;;;;;4.58;91.44;98813.34;3192125;23;20028;-77
2022/03/16 01:12:46;;;;;;;41.17;22.55;;;;;;;4.58;91.36;98810.75;3191824;23;20492;-77
2022/03/16 01:14:02;;;;;;;47.30;22.98;;;;;;;4.59;91.15;98812.47;3191884;23;20017;-77
2022/03/16 01:15:23;;;;;;;43.60;22.35;;;;;;;4.58;91.36;98815.94;3192092;23;20024;-76
2022/03/16 01:16:39;;;;;;;39.03;20.95;;;;;;;4.59;91.09;98815.06;3191994;23;20021;-76
2022/03/16 01:17:55;;;;;;;36.30;18.35;;;;;;;4.61;91.06;98821.16;3192177;23;20021;-77
2022/03/16 01:19:14;;;;;;;40.50;20.73;;;;;;;4.60;90.65;98816.78;3191928;23;20021;-77
2022/03/16 01:20:30;;;;;;;36.65;19.23;;;;;;;4.63;90.39;98822.00;3191834;23;20016;-77
2022/03/16 01:21:46;;;;;;;40.05;22.23;;;;;;;4.60;90.45;98823.72;3191787;23;20048;-77
2022/03/16 01:23:01;;;;;;;39.80;21.55;;;;;;;4.55;90.58;98825.44;3191919;23;20123;-77
2022/03/16 01:24:17;;;;;;;37.72;20.17;;;;;;;4.61;90.58;98825.44;3191807;23;20017;-76
2022/03/16 01:25:32;;;;;;;38.75;19.98;;;;;;;4.59;90.56;98822.00;3191816;23;20030;-77
2022/03/16 01:26:48;;;;;;;35.28;18.25;;;;;;;4.58;90.51;98821.13;3192054;23;20075;-78
2022/03/16 01:28:04;;;;;;;38.05;20.45;;;;;;;4.53;90.60;98822.84;3192226;23;20052;-77
2022/03/16 01:29:19;;;;;;;39.20;20.48;;;;;;;4.49;90.67;98836.66;3191929;23;20017;-77
2022/03/16 01:30:35;;;;;;;40.33;20.60;;;;;;;4.51;90.34;98835.78;3192181;23;20330;-79
2022/03/16 01:31:54;;;;;;;35.45;17.58;;;;;;;4.48;90.41;98833.19;3191371;23;20637;-77
2022/03/16 01:33:10;;;;;;;38.33;20.35;;;;;;;4.48;90.50;98837.53;3192290;23;20028;-76
2022/03/16 01:34:26;;;;;;;35.20;18.48;;;;;;;4.48;90.63;98835.78;3191858;23;20017;-77
2022/03/16 01:35:41;;;;;;;36.55;20.10;;;;;;;4.56;90.29;98838.41;3191969;23;20044;-77
2022/03/16 01:36:57;;;;;;;34.33;19.38;;;;;;;4.55;90.24;98838.41;3191956;23;20045;-77
2022/03/16 01:38:12;;;;;;;34.67;18.95;;;;;;;4.57;89.93;98844.47;3191986;23;20024;-76
2022/03/16 01:39:28;;;;;;;36.25;19.58;;;;;;;4.55;90.14;98848.78;3192027;23;20064;-77
2022/03/16 01:40:44;;;;;;;32.90;17.83;;;;;;;4.46;90.51;98852.19;3192013;23;20074;-77
2022/03/16 01:41:59;;;;;;;36.10;19.20;;;;;;;4.49;90.54;98847.03;3192136;23;20118;-77
2022/03/16 01:43:15;;;;;;;35.10;19.05;;;;;;;4.54;90.23;98840.13;3191615;23;20024;-76
2022/03/16 01:44:46;;;;;;;30.40;18.50;;;;;;;4.52;90.01;98845.31;3191939;23;20017;-77
2022/03/16 01:46:02;;;;;;;29.45;17.50;;;;;;;4.56;90.06;98846.19;3192217;23;20024;-78
2022/03/16 01:47:19;;;;;;;31.33;17.30;;;;;;;4.56;89.87;98843.59;3191703;23;20016;-77
2022/03/16 01:48:35;;;;;;;34.38;18.90;;;;;;;4.46;90.42;98842.69;3192229;23;20337;-77
2022/03/16 01:49:53;;;;;;;31.60;17.77;;;;;;;4.46;90.16;98850.47;3191634;23;20045;-77
2022/03/16 01:51:08;;;;;;;29.02;15.82;;;;;;;4.48;90.16;98845.31;3191749;23;20147;-77
2022/03/16 01:52:26;;;;;;;30.25;16.63;;;;;;;4.53;89.82;98846.19;3192037;23;20017;-77
2022/03/16 01:53:42;;;;;;;31.40;16.25;;;;;;;4.48;89.85;98855.69;3175476;23;20449;-76
2022/03/16 01:55:00;;;;;;;29.77;15.90;;;;;;;4.46;89.85;98854.78;3181983;23;20041;-76
2022/03/16 01:56:17;;;;;;;30.27;16.38;;;;;;;4.52;89.96;98852.22;3191887;23;20055;-78
2022/03/16 01:57:34;;;;;;;29.73;16.95;;;;;;;4.56;89.50;98851.38;3191902;23;20041;-78
2022/03/16 01:58:50;;;;;;;30.20;16.42;;;;;;;4.56;89.18;98853.97;3191888;23;20021;-78
2022/03/16 02:00:07;;;;;;;26.70;15.55;;;;;;;4.48;89.67;98858.28;3191978;23;20389;-77
2022/03/16 02:01:23;;;;;;;30.60;16.70;;;;;;;4.49;89.81;98863.44;3192231;23;20731;-78
2022/03/16 02:02:38;;;;;;;28.42;17.73;;;;;;;4.50;89.81;98865.19;3192045;23;20028;-77
2022/03/16 02:03:54;;;;;;;29.52;16.23;;;;;;;4.47;89.78;98864.28;3191889;23;20024;-77
2022/03/16 02:05:10;;;;;;;31.60;16.67;;;;;;;4.51;89.80;98863.47;3192135;23;20459;-77
2022/03/16 02:06:25;;;;;;;28.58;16.27;;;;;;;4.51;89.68;98868.66;3191860;23;20165;-77
2022/03/16 02:07:43;;;;;;;28.80;15.77;;;;;;;4.58;89.56;98870.38;3191971;23;20448;-77
2022/03/16 02:08:58;;;;;;;25.55;15.02;;;;;;;4.54;89.55;98873.84;3191706;23;20372;-77
2022/03/16 02:10:14;;;;;;;29.40;16.48;;;;;;;4.50;89.45;98874.69;3191898;23;20009;-77
2022/03/16 02:11:30;;;;;;;29.33;16.10;;;;;;;4.49;89.44;98870.38;3191586;23;20018;-77
2022/03/16 02:12:48;;;;;;;28.67;16.08;;;;;;;4.43;89.77;98875.53;3191880;23;20387;-80
2022/03/16 02:14:03;;;;;;;28.50;15.77;;;;;;;4.45;89.81;98879.88;3191642;23;20037;-78
2022/03/16 02:15:21;;;;;;;28.02;14.82;;;;;;;4.52;89.52;98872.97;3191753;23;20624;-79
2022/03/16 02:16:36;;;;;;;27.13;15.07;;;;;;;4.50;89.68;98877.28;3191754;23;20387;-78
2022/03/16 02:17:54;;;;;;;26.35;14.55;;;;;;;4.51;89.50;98881.63;3191832;23;20017;-77
2022/03/16 02:19:10;;;;;;;27.00;15.95;;;;;;;4.48;89.72;98879.03;3191486;23;20504;-76
2022/03/16 02:20:27;;;;;;;27.92;15.77;;;;;;;4.48;89.64;98886.78;3191377;23;20013;-77
2022/03/16 02:21:45;;;;;;;28.85;15.82;;;;;;;4.53;89.61;98880.75;3191745;23;20021;-77
2022/03/16 02:23:03;;;;;;;25.92;14.75;;;;;;;4.53;89.50;98878.16;3191991;23;20087;-77
2022/03/16 02:24:18;;;;;;;27.10;15.43;;;;;;;4.57;89.33;98883.38;3191747;23;20013;-78
2022/03/16 02:25:48;;;;;;;26.98;14.55;;;;;;;4.61;89.02;98896.34;3191732;23;20017;-78
2022/03/16 02:27:03;;;;;;;26.42;14.70;;;;;;;4.52;89.29;98891.13;3191799;23;20068;-78
2022/03/16 02:28:20;;;;;;;26.45;14.25;;;;;;;4.48;89.50;98889.38;3191830;23;20028;-77
2022/03/16 02:29:36;;;;;;;29.73;15.52;;;;;;;4.43;89.90;98893.66;3191546;23;20706;-77
2022/03/16 02:30:52;;;;;;;26.27;14.65;;;;;;;4.46;89.70;98898.84;3191255;23;20017;-77
2022/03/16 02:32:08;;;;;;;27.27;15.38;;;;;;;4.45;89.60;98898.00;3197026;23;20048;-78
2022/03/16 02:33:25;;;;;;;24.90;14.68;;;;;;;4.47;89.75;98898.88;3191793;23;20028;-80
2022/03/16 02:34:40;;;;;;;26.90;15.23;;;;;;;4.47;89.83;98901.47;3192031;23;20017;-77
2022/03/16 02:35:56;;;;;;;29.92;15.18;;;;;;;4.44;89.94;98905.78;3192582;23;20064;-77
2022/03/16 02:37:11;;;;;;;24.35;14.13;;;;;;;4.43;89.93;98906.63;3193123;23;20017;-77
2022/03/16 02:38:27;;;;;;;26.02;15.60;;;;;;;4.44;89.19;98905.78;3193154;23;20110;-77
2022/03/16 02:39:42;;;;;;;27.88;14.48;;;;;;;4.44;89.62;98909.25;3192816;23;20016;-77
2022/03/16 02:40:58;;;;;;;25.58;14.50;;;;;;;4.42;89.74;98915.28;3192509;23;20028;-77
2022/03/16 02:42:14;;;;;;;25.83;14.45;;;;;;;4.35;89.83;98916.97;3193025;23;20021;-77
2022/03/16 02:43:30;;;;;;;25.45;14.38;;;;;;;4.32;90.22;98916.97;3192838;23;20021;-77
2022/03/16 02:44:45;;;;;;;27.25;14.75;;;;;;;4.30;90.01;98916.94;3192864;23;20078;-76
2022/03/16 02:46:01;;;;;;;26.23;14.63;;;;;;;4.33;90.23;98921.28;3192799;23;20017;-77
2022/03/16 02:47:17;;;;;;;28.70;15.27;;;;;;;4.29;90.33;98928.16;3192497;23;20435;-77
2022/03/16 02:48:33;;;;;;;26.25;14.48;;;;;;;4.26;90.54;98925.56;3192420;23;20064;-77
2022/03/16 02:49:49;;;;;;;27.42;14.82;;;;;;;4.34;90.41;98933.38;3192798;23;20343;-77
2022/03/16 02:51:04;;;;;;;23.63;14.15;;;;;;;4.34;90.24;98933.38;3192480;23;20570;-79
2022/03/16 02:52:22;;;;;;;25.70;14.43;;;;;;;4.32;90.34;98935.97;3192478;23;20017;-79
2022/03/16 02:53:37;;;;;;;26.52;15.43;;;;;;;4.32;90.36;98938.53;3192805;23;20021;-77
2022/03/16 02:54:53;;;;;;;29.20;15.40;;;;;;;4.31;90.34;98938.56;3192269;23;20017;-78
2022/03/16 02:56:09;;;;;;;26.20;14.65;;;;;;;4.34;90.40;98942.03;3192541;23;20448;-77
2022/03/16 02:57:24;;;;;;;27.85;15.25;;;;;;;4.29;90.47;98941.13;3192538;23;20025;-77
2022/03/16 02:58:40;;;;;;;28.60;15.93;;;;;;;4.30;90.57;98944.59;3193109;23;20013;-77
2022/03/16 02:59:56;;;;;;;28.63;15.50;;;;;;;4.22;91.05;98945.41;3192925;23;20013;-77
2022/03/16 03:01:11;;;;;;;28.92;15.05;;;;;;;4.21;90.91;98945.44;3192567;23;20079;-77
2022/03/16 03:02:27;;;;;;;27.30;15.02;;;;;;;4.20;91.33;98948.88;3192865;23;20456;-76
2022/03/16 03:03:43;;;;;;;27.38;14.65;;;;;;;4.24;91.27;98955.81;3192799;23;20028;-77
2022/03/16 03:04:58;;;;;;;25.13;14.10;;;;;;;4.22;91.15;98949.75;3193050;23;20024;-76
2022/03/16 03:06:14;;;;;;;29.15;16.20;;;;;;;4.22;91.25;98960.13;3192648;23;20063;-76
2022/03/16 03:07:29;;;;;;;27.17;15.63;;;;;;;4.18;91.56;98955.75;3192608;23;20017;-76
2022/03/16 03:08:45;;;;;;;31.05;16.25;;;;;;;4.16;91.71;98965.25;3192906;23;20047;-78
2022/03/16 03:10:01;;;;;;;29.52;15.40;;;;;;;4.19;91.75;98965.25;3192284;23;20352;-76
2022/03/16 03:11:16;;;;;;;27.30;15.05;;;;;;;4.21;91.85;98971.34;3192487;23;20444;-77
2022/03/16 03:12:35;;;;;;;29.70;15.93;;;;;;;4.12;92.04;98972.16;3192640;23;20021;-77
2022/03/16 03:13:51;;;;;;;30.55;16.55;;;;;;;4.24;92.05;98967.03;3192643;23;20013;-78
2022/03/16 03:15:10;;;;;;;28.02;15.68;;;;;;;4.18;91.96;98968.69;3192708;23;20021;-77
2022/03/16 03:16:25;;;;;;;29.90;16.75;;;;;;;4.25;91.92;98973.09;3192390;23;20052;-77
2022/03/16 03:17:42;;;;;;;31.50;16.58;;;;;;;4.21;91.83;98976.53;3192588;23;20024;-78
2022/03/16 03:18:58;;;;;;;29.75;16.15;;;;;;;4.25;91.73;98978.28;3192651;23;20028;-76
2022/03/16 03:20:13;;;;;;;31.33;16.90;;;;;;;4.26;91.63;98980.00;3192410;23;20079;-76
2022/03/16 03:21:29;;;;;;;29.90;16.42;;;;;;;4.23;91.96;98978.25;3192910;23;20471;-79
2022/03/16 03:22:45;;;;;;;30.60;16.52;;;;;;;4.24;91.83;98977.38;3192546;23;20048;-76
2022/03/16 03:24:00;;;;;;;32.08;16.50;;;;;;;4.30;91.64;98971.38;3192597;23;20027;-77
2022/03/16 03:25:16;;;;;;;27.58;15.80;;;;;;;4.35;91.39;98979.19;3192486;23;20013;-76
2022/03/16 03:26:32;;;;;;;31.10;16.05;;;;;;;4.41;91.30;98984.44;3192707;23;20060;-77
2022/03/16 03:27:47;;;;;;;30.17;15.90;;;;;;;4.43;90.92;98987.00;3192315;23;20048;-77
2022/03/16 03:29:03;;;;;;;31.08;15.88;;;;;;;4.35;91.01;98986.97;3192570;23;20296;-77
2022/03/16 03:30:19;;;;;;;29.55;16.33;;;;;;;4.45;90.87;98990.47;3192457;23;20372;-76
2022/03/16 03:31:35;;;;;;;30.83;16.20;;;;;;;4.51;90.64;98981.00;3192257;23;20388;-77
2022/03/16 03:32:50;;;;;;;29.35;16.20;;;;;;;4.52;90.16;98987.06;3192488;23;20017;-78
2022/03/16 03:34:06;;;;;;;30.42;16.83;;;;;;;4.53;90.32;98993.97;3192327;23;20017;-77
2022/03/16 03:35:22;;;;;;;29.27;15.88;;;;;;;4.48;90.13;98988.78;3192767;23;20041;-78
2022/03/16 03:36:37;;;;;;;28.45;16.63;;;;;;;4.47;90.58;98989.63;3175907;23;20024;-77
2022/03/16 03:37:54;;;;;;;31.17;16.30;;;;;;;4.47;90.69;98993.94;3182543;23;20492;-78
2022/03/16 03:39:10;;;;;;;31.88;16.92;;;;;;;4.56;90.39;98987.97;3192304;23;20024;-76
2022/03/16 03:40:25;;;;;;;32.42;15.75;;;;;;;4.57;90.33;98992.28;3192284;23;20444;-77
2022/03/16 03:41:42;;;;;;;31.02;16.38;;;;;;;4.51;90.62;98996.56;3192545;23;20021;-77
2022/03/16 03:42:57;;;;;;;31.10;16.85;;;;;;;4.56;90.35;98990.56;3192522;23;20088;-76
2022/03/16 03:44:13;;;;;;;30.58;16.50;;;;;;;4.56;90.28;98993.16;3192324;23;20097;-77
2022/03/16 03:45:28;;;;;;;31.05;17.45;;;;;;;4.49;90.28;98997.44;3192410;23;20013;-78
2022/03/16 03:46:44;;;;;;;31.65;16.50;;;;;;;4.46;90.53;98992.19;3192227;23;20025;-76
2022/03/16 03:48:00;;;;;;;29.92;16.52;;;;;;;4.48;90.32;99000.88;3192183;23;20067;-76
2022/03/16 03:49:16;;;;;;;30.60;16.42;;;;;;;4.46;90.28;99012.94;3192567;23;20070;-77
2022/03/16 03:50:31;;;;;;;30.75;16.83;;;;;;;4.43;90.18;99006.03;3192513;23;20092;-76
2022/03/16 03:51:47;;;;;;;32.05;16.45;;;;;;;4.42;90.02;99006.00;3191945;23;20088;-77
2022/03/16 03:53:02;;;;;;;30.65;16.33;;;;;;;4.34;90.08;99012.03;3192259;23;20025;-81
2022/03/16 03:54:18;;;;;;;29.15;16.65;;;;;;;4.33;90.24;99010.31;3192392;23;20024;-77
2022/03/16 03:55:34;;;;;;;28.40;15.73;;;;;;;4.21;90.09;99005.88;3192167;23;20031;-77
2022/03/16 03:56:49;;;;;;;29.60;16.23;;;;;;;4.13;90.10;99014.47;3192227;23;20036;-77
2022/03/16 03:58:05;;;;;;;26.92;15.63;;;;;;;4.03;90.15;99006.63;3192263;23;20013;-76
2022/03/16 03:59:21;;;;;;;27.23;15.10;;;;;;;3.94;90.04;99011.75;3192319;23;20017;-76
2022/03/16 04:00:37;;;;;;;28.80;15.93;;;;;;;3.85;89.97;99011.66;3191644;23;20384;-77
2022/03/16 04:01:52;;;;;;;25.45;14.77;;;;;;;3.74;90.02;99009.84;3192292;23;20013;-76
2022/03/16 04:03:08;;;;;;;26.73;14.77;;;;;;;3.71;90.19;99019.31;3192118;23;20021;-76
2022/03/16 04:04:23;;;;;;;25.15;14.05;;;;;;;3.64;90.30;99023.56;3192380;23;20092;-77
2022/03/16 04:05:39;;;;;;;25.38;14.68;;;;;;;3.61;90.16;99020.94;3192259;23;20793;-76
2022/03/16 04:06:54;;;;;;;26.38;14.43;;;;;;;3.57;90.09;99032.13;3191991;23;20021;-77
2022/03/16 04:08:10;;;;;;;25.50;14.05;;;;;;;3.47;89.63;99028.59;3192326;23;20028;-77
2022/03/16 04:09:26;;;;;;;28.17;14.85;;;;;;;3.46;89.95;99032.88;3192006;23;20088;-77
2022/03/16 04:10:41;;;;;;;26.77;14.98;;;;;;;3.42;90.09;99036.28;3192666;23;20025;-80
2022/03/16 04:11:57;;;;;;;29.00;15.48;;;;;;;3.42;90.22;99038.88;3192445;23;20356;-76
2022/03/16 04:13:13;;;;;;;33.55;16.73;;;;;;;3.49;90.43;99040.69;3192263;23;20047;-77
2022/03/16 04:14:28;;;;;;;30.75;16.52;;;;;;;3.48;90.54;99038.94;3192477;23;20083;-77
2022/03/16 04:15:44;;;;;;;32.75;17.02;;;;;;;3.47;90.46;99041.53;3192148;23;20021;-77
2022/03/16 04:16:59;;;;;;;29.27;16.00;;;;;;;3.51;90.73;99046.75;3192136;23;20081;-77
2022/03/16 04:18:15;;;;;;;30.75;16.63;;;;;;;3.47;90.53;99046.69;3191872;23;20016;-77
2022/03/16 04:19:31;;;;;;;31.05;17.20;;;;;;;3.45;90.43;99051.00;3192090;23;20045;-77
2022/03/16 04:20:46;;;;;;;27.95;15.50;;;;;;;3.42;90.48;99051.81;3192092;23;20021;-76
2022/03/16 04:22:02;;;;;;;28.38;15.43;;;;;;;3.38;90.08;99055.25;3191927;23;20028;-77
2022/03/16 04:23:17;;;;;;;29.30;15.20;;;;;;;3.37;90.12;99050.91;3192405;23;20024;-78
2022/03/16 04:24:33;;;;;;;26.40;14.80;;;;;;;3.32;90.27;99055.16;3191829;23;20091;-77
2022/03/16 04:25:49;;;;;;;26.40;14.48;;;;;;;3.26;89.78;99055.94;3192181;23;20523;-82
2022/03/16 04:27:04;;;;;;;26.15;14.15;;;;;;;3.20;89.68;99061.91;3192620;23;20017;-78
2022/03/16 04:28:20;;;;;;;31.65;15.98;;;;;;;3.18;89.44;99058.44;3191816;23;20052;-76
2022/03/16 04:29:36;;;;;;;26.35;14.85;;;;;;;3.16;89.69;99061.91;3192325;23;20077;-77
2022/03/16 04:30:51;;;;;;;29.20;14.68;;;;;;;3.13;89.42;99059.25;3191890;23;20021;-76
2022/03/16 04:32:08;;;;;;;25.10;13.70;;;;;;;3.07;89.12;99065.22;3192334;23;20025;-78
2022/03/16 04:33:23;;;;;;;25.70;13.73;;;;;;;2.94;88.71;99065.09;3192416;23;20013;-77
2022/03/16 04:34:39;;;;;;;29.83;14.57;;;;;;;2.82;88.86;99070.09;3192343;23;20024;-76
2022/03/16 04:35:55;;;;;;;25.52;13.80;;;;;;;2.76;89.02;99069.97;3192404;23;20025;-79
2022/03/16 04:37:11;;;;;;;28.73;15.60;;;;;;;2.70;89.03;99070.75;3192672;23;20348;-77
2022/03/16 04:38:26;;;;;;;27.55;14.27;;;;;;;2.70;89.75;99072.50;3192406;23;20180;-77
2022/03/16 04:39:42;;;;;;;26.67;14.40;;;;;;;2.65;89.93;99069.84;3192323;23;20083;-77
2022/03/16 04:41:01;;;;;;;26.77;14.07;;;;;;;2.65;89.70;99072.44;3192173;23;20047;-76
2022/03/16 04:42:16;;;;;;;30.35;15.52;;;;;;;2.67;90.02;99078.50;3192450;23;20423;-77
2022/03/16 04:43:32;;;;;;;29.10;15.35;;;;;;;2.68;90.27;99080.22;3190968;23;20025;-76
2022/03/16 04:44:47;;;;;;;34.38;17.80;;;;;;;2.79;90.49;99075.19;3192066;23;20478;-78
2022/03/16 04:46:04;;;;;;;35.58;17.83;;;;;;;2.89;91.07;99079.66;3192465;23;20802;-77
2022/03/16 04:47:20;;;;;;;38.70;19.55;;;;;;;3.04;91.53;99073.81;3192168;23;20499;-78
2022/03/16 04:48:35;;;;;;;35.88;16.48;;;;;;;3.08;91.28;99080.75;3192154;23;20017;-77
2022/03/16 04:49:51;;;;;;;32.13;16.27;;;;;;;3.15;91.11;99078.28;3192408;23;20630;-77
2022/03/16 04:51:06;;;;;;;29.02;15.57;;;;;;;3.14;90.63;99079.09;3191702;23;20017;-76
2022/03/16 04:52:22;;;;;;;31.42;16.70;;;;;;;3.15;90.45;99080.84;3192033;23;20091;-76
2022/03/16 04:53:38;;;;;;;32.50;16.77;;;;;;;3.18;90.51;99086.91;3191917;23;20443;-76
2022/03/16 04:54:54;;;;;;;31.38;16.90;;;;;;;3.19;90.15;99080.88;3192076;23;20075;-77
2022/03/16 04:56:09;;;;;;;31.77;16.15;;;;;;;3.25;90.56;99085.28;3191752;23;20021;-76
2022/03/16 04:57:25;;;;;;;30.52;16.30;;;;;;;3.30;89.81;99086.22;3192220;23;20629;-77
2022/03/16 04:58:40;;;;;;;35.67;18.20;;;;;;;3.34;90.56;99084.50;3190959;23;20021;-76
2022/03/16 04:59:56;;;;;;;35.70;17.35;;;;;;;3.44;90.68;99088.94;3191972;23;20053;-76
2022/03/16 05:01:12;;;;;;;39.85;19.13;;;;;;;3.53;91.40;99093.34;3192170;23;20025;-76
2022/03/16 05:02:27;;;;;;;40.97;19.02;;;;;;;3.61;91.39;99096.03;3192231;23;20060;-78
2022/03/16 05:03:45;;;;;;;39.08;18.65;;;;;;;3.65;91.48;99090.06;3191634;23;20021;-80
2022/03/16 05:05:01;;;;;;;36.67;18.23;;;;;;;3.62;90.95;99087.41;3191691;23;20332;-77
2022/03/16 05:06:16;;;;;;;32.50;16.67;;;;;;;3.61;90.62;99085.66;3192125;23;20341;-77
2022/03/16 05:07:32;;;;;;;33.15;17.52;;;;;;;3.58;90.37;99085.63;3192154;23;20016;-79
2022/03/16 05:08:47;;;;;;;33.70;16.70;;;;;;;3.52;90.30;99092.50;3191947;23;20340;-78
2022/03/16 05:10:05;;;;;;;36.60;18.15;;;;;;;3.56;91.16;99100.28;3191734;23;20020;-77
2022/03/16 05:11:22;;;;;;;36.38;17.95;;;;;;;3.51;91.31;99095.06;3191955;23;20020;-79
2022/03/16 05:12:38;;;;;;;36.30;17.52;;;;;;;3.48;90.99;99097.63;3191682;23;20524;-77
2022/03/16 05:13:56;;;;;;;37.97;18.38;;;;;;;3.47;91.16;99103.66;3192015;23;20346;-77
2022/03/16 05:15:17;;;;;;;38.47;18.88;;;;;;;3.43;90.12;99100.16;3191874;23;20020;-79
2022/03/16 05:16:32;;;;;;;30.33;16.50;;;;;;;3.39;90.21;99106.16;3191702;23;20031;-77
2022/03/16 05:17:48;;;;;;;35.60;17.40;;;;;;;3.37;90.48;99110.44;3192051;23;20032;-77
2022/03/16 05:19:04;;;;;;;32.67;16.63;;;;;;;3.31;90.31;99111.25;3192013;23;20057;-79
2022/03/16 05:20:20;;;;;;;33.38;16.92;;;;;;;3.23;90.16;99118.91;3192265;23;20025;-78
2022/03/16 05:21:35;;;;;;;36.58;18.20;;;;;;;3.18;90.16;99117.13;3191956;23;20322;-77
2022/03/16 05:22:53;;;;;;;34.17;17.80;;;;;;;3.11;90.54;99116.16;3192140;23;20043;-78
2022/03/16 05:24:08;;;;;;;41.60;20.40;;;;;;;2.98;90.29;99120.28;3191475;23;20023;-79
2022/03/16 05:25:26;;;;;;;38.75;18.45;;;;;;;2.91;90.51;99121.91;3191927;23;20344;-78
2022/03/16 05:26:42;;;;;;;41.50;19.23;;;;;;;2.85;90.50;99131.31;3191836;23;20470;-81
2022/03/16 05:27:58;;;;;;;36.58;19.25;;;;;;;2.76;90.68;99126.88;3191857;23;20021;-77
2022/03/16 05:29:13;;;;;;;35.40;18.77;;;;;;;2.69;90.79;99131.09;3191656;23;20071;-78
2022/03/16 05:30:29;;;;;;;39.35;19.73;;;;;;;2.67;90.96;99135.38;3191527;23;20071;-78
2022/03/16 05:31:45;;;;;;;40.53;19.55;;;;;;;2.62;91.11;99132.72;3191747;23;20017;-78
2022/03/16 05:33:01;;;;;;;37.15;19.00;;;;;;;2.57;90.85;99126.59;3191643;23;20025;-81
2022/03/16 05:34:17;;;;;;;41.65;20.13;;;;;;;2.49;91.42;99133.38;3191666;23;20020;-79
2022/03/16 05:35:33;;;;;;;40.50;18.92;;;;;;;2.43;91.37;99133.28;3192009;23;20129;-78
2022/03/16 05:36:48;;;;;;;39.45;18.85;;;;;;;2.39;91.51;99138.41;3192077;23;20075;-78
2022/03/16 05:38:05;;;;;;;38.97;19.00;;;;;;;2.37;91.36;99139.22;3191707;23;20039;-78
2022/03/16 05:39:21;;;;;;;35.63;18.10;;;;;;;2.32;91.24;99146.03;3192046;23;20100;-78
2022/03/16 05:40:36;;;;;;;36.78;18.27;;;;;;;2.25;91.33;99147.63;3191573;23;20049;-78
2022/03/16 05:41:52;;;;;;;39.50;18.35;;;;;;;2.31;91.74;99142.56;3191648;23;20326;-78
2022/03/16 05:43:09;;;;;;;38.60;18.00;;;;;;;2.47;91.83;99143.69;3191889;23;20021;-77
2022/03/16 05:44:24;;;;;;;44.00;19.00;;;;;;;2.58;92.60;99146.44;3192098;23;20027;-78
2022/03/16 05:45:40;;;;;;;37.42;18.20;;;;;;;2.52;92.63;99154.13;3191923;23;20468;-79
2022/03/16 05:46:57;;;;;;;35.00;17.45;;;;;;;2.39;92.42;99153.91;3192366;23;20021;-79
2022/03/16 05:48:12;;;;;;;38.05;16.65;;;;;;;2.29;91.47;99164.03;3191904;23;20387;-78
2022/03/16 05:49:28;;;;;;;34.17;16.35;;;;;;;2.20;91.51;99163.06;3192040;23;20074;-78
2022/03/16 05:50:47;;;;;;;37.25;17.77;;;;;;;2.14;91.86;99170.69;3191975;23;20785;-78
2022/03/16 05:52:03;;;;;;;32.35;16.30;;;;;;;2.04;91.64;99169.66;3191995;23;20036;-78
2022/03/16 05:53:18;;;;;;;36.47;16.65;;;;;;;2.02;91.59;99176.50;3191781;23;20096;-78